Terminal Aerodrome Forecast
Issued by NWS Newport/Morehead City, NC

Home | Current Version | Previous Version | Text Only | Print | Product List | Glossary Off
Versions: 1 2 3 4 5 6 7 8 9 10 11 12 13 14

000
FTUS42 KMHX 271100 RRA
TAFEWN
TAF
KEWN 271142Z 2712/2812 33012G20KT P6SM OVC020
      TEMPO 2712/2714 2SM -SN SCT008 OVC015
     FM271900 33010G16KT P6SM OVC035
     FM272300 34005KT P6SM SCT040=

USA.gov is the U.S. government's official web portal to all federal, state and local government web resources and services.